Flight Track Log - Related Links

Times and Time Zones

All times are in EDT time to prevent confusion due to time zone crossing. See the AAL2345 flight status page for this flight to view local times or setup timezone preferences in your user account.

Time Position Orientation Groundspeed Altitude Reporting Facility
EDT Latitude Longitude Course Direction KTS MPH feet Rate Location/Type
Thu 06:47:08 PM 41.9667 -87.8500 207° Southwest 186 214 2,100  Level Chicago TRACON
Thu 06:48:06 PM 41.9286 -87.8119 143° Southeast 228 262 3,600 1,450 Climbing Chicago Center
Thu 06:49:08 PM 41.8592 -87.7775 160° South 273 314 5,000 919 Climbing Chicago Center
Thu 06:50:10 PM 41.7794 -87.7817 182° South 291 335 5,500 1,887 Climbing Chicago Center
Thu 06:51:00 PM 41.5429 -88.4234 194° South  Level Estimated
Thu 06:51:12 PM 41.7031 -87.8586 217° Southwest 289 333 8,900  Level Chicago Center
Thu 06:52:00 PM 41.4548 -88.5259 207° Southwest  Level Estimated
Thu 06:52:14 PM 41.6347 -87.9303 218° Southwest 308 354 10,800  Level Chicago Center
Thu 06:53:16 PM 41.5558 -88.0156 219° Southwest 362 417 12,500 1,935 Climbing Chicago Center
Thu 06:54:18 PM 41.4731 -88.1069 220° Southwest 395 455 14,800 2,371 Climbing Chicago Center
Thu 06:55:20 PM 41.3586 -88.2028 212° Southwest 429 494 17,400 2,081 Climbing Chicago Center
Thu 06:56:22 PM 41.2450 -88.2531 198° South 438 504 19,100 1,742 Climbing Chicago Center
Thu 06:57:24 PM 41.1269 -88.3072 199° South 450 518 21,000 1,920 Climbing Chicago Center
Thu 06:58:27 PM 40.9811 -88.3714 198° South 462 532 23,100 1,728 Climbing Chicago Center
Thu 06:59:29 PM 40.8583 -88.4258 199° South 465 535 24,600 1,355 Climbing Chicago Center
Thu 07:00:31 PM 40.7319 -88.4822 199° South 473 544 25,900 1,452 Climbing Chicago Center
Thu 07:01:33 PM 40.6050 -88.5383 199° South 480 552 27,600 1,548 Climbing Chicago Center
Thu 07:02:35 PM 40.4794 -88.5944 199° South 481 554 29,100 1,355 Climbing Chicago Center
Thu 07:03:37 PM 40.3514 -88.6503 198° South 475 547 30,400 1,210 Climbing Chicago Center
Thu 07:04:39 PM 40.2433 -88.7400 212° Southwest 458 527 31,600 774 Climbing Chicago Center
Thu 07:05:41 PM 40.1231 -88.8653 219° Southwest 456 525 32,000 194 Climbing Chicago Center
Thu 07:06:43 PM 40.0208 -88.9703 218° Southwest 462 532 32,000  Level Chicago Center
Thu 07:07:45 PM 39.9175 -89.0750 218° Southwest 467 537 32,000  Level Chicago Center
Thu 07:08:38 PM 39.8336 -89.1608 218° Southwest 467 537 32,000 417 Level Kansas City Center
Thu 07:09:40 PM 39.7322 -89.2642 218° Southwest 463 533 32,800 677 Climbing Kansas City Center
Thu 07:10:42 PM 39.6419 -89.3569 218° Southwest 463 533 33,400 581 Climbing Kansas City Center
Thu 07:11:44 PM 39.5189 -89.4808 218° Southwest 465 535 34,000 290 Climbing Kansas City Center
Thu 07:12:46 PM 39.4150 -89.5844 218° Southwest 470 541 34,000  Level Kansas City Center
Thu 07:13:48 PM 39.2903 -89.7086 218° Southwest 472 543 34,000  Level Kansas City Center
Thu 07:14:50 PM 39.1819 -89.8183 218° Southwest 473 544 34,000  Level Kansas City Center
Thu 07:15:52 PM 39.0786 -89.9228 218° Southwest 474 545 34,000  Level Kansas City Center
Thu 07:16:54 PM 38.9808 -90.0233 219° Southwest 471 542 34,000  Level Kansas City Center
Thu 07:17:56 PM 38.8858 -90.1611 228° Southwest 456 525 34,000  Level Kansas City Center
Thu 07:18:58 PM 38.7972 -90.2797 226° Southwest 457 526 34,000  Level Kansas City Center
Thu 07:20:00 PM 38.7078 -90.3992 226° Southwest 460 529 34,000  Level Kansas City Center
Thu 07:21:02 PM 38.6150 -90.5225 226° Southwest 486 559 34,000  Level Kansas City Center
Thu 07:22:05 PM 38.5278 -90.6411 227° Southwest 459 528 34,000  Level Kansas City Center
Thu 07:23:07 PM 38.4264 -90.7783 227° Southwest 460 529 34,000  Level Kansas City Center
Thu 07:24:09 PM 38.3386 -90.8961 226° Southwest 460 529 34,000  Level Kansas City Center
Thu 07:25:11 PM 38.2494 -91.0139 226° Southwest 462 532 34,000  Level Kansas City Center
Thu 07:27:15 PM 38.0653 -91.2564 226° Southwest 460 529 34,000  Level Kansas City Center
Thu 07:28:17 PM 37.9769 -91.3747 227° Southwest 459 528 34,000  Level Kansas City Center
Thu 07:29:19 PM 37.8897 -91.4892 226° Southwest 453 521 34,000  Level Kansas City Center
Thu 07:30:21 PM 37.8042 -91.6019 226° Southwest 445 512 34,000  Level Kansas City Center
Thu 07:31:23 PM 37.7017 -91.7356 226° Southwest 440 506 34,000  Level Kansas City Center
Thu 07:32:25 PM 37.6164 -91.8478 226° Southwest 439 505 34,000  Level Kansas City Center
Thu 07:33:27 PM 37.5303 -91.9594 226° Southwest 439 505 34,000  Level Kansas City Center
Thu 07:34:29 PM 37.4536 -92.0747 230° Southwest 430 495 34,000  Level Kansas City Center
Thu 07:35:31 PM 37.4247 -92.2075 255° West 395 455 34,000  Level Kansas City Center
Thu 07:36:33 PM 37.4072 -92.3481 261° West 399 459 34,000  Level Kansas City Center
Thu 07:37:35 PM 37.3917 -92.4886 262° West 402 463 34,000  Level Kansas City Center
Thu 07:38:37 PM 37.3744 -92.6269 261° West 400 460 34,000  Level Kansas City Center
Thu 07:39:39 PM 37.3547 -92.7944 262° West 401 461 34,000  Level Kansas City Center
Thu 07:40:41 PM 37.3386 -92.9358 262° West 404 465 34,000  Level Kansas City Center
Thu 07:41:43 PM 37.3203 -93.0761 261° West 405 466 34,000  Level Kansas City Center
Thu 07:42:45 PM 37.3033 -93.2169 261° West 406 467 34,000  Level Kansas City Center
Thu 07:43:47 PM 37.2856 -93.3578 261° West 407 468 34,000  Level Kansas City Center
Thu 07:44:49 PM 37.2694 -93.4983 262° West 406 467 34,000  Level Kansas City Center
Thu 07:45:51 PM 37.2522 -93.6392 261° West 407 468 34,000  Level Kansas City Center
Thu 07:46:53 PM 37.2342 -93.7786 261° West 406 467 34,000  Level Kansas City Center
Thu 07:47:56 PM 37.2131 -93.9472 261° West 406 467 34,000  Level Kansas City Center
Thu 07:48:58 PM 37.1936 -94.0881 260° West 408 470 34,000  Level Kansas City Center
Thu 07:50:00 PM 37.1767 -94.2222 261° West 418 481 34,000  Level Kansas City Center
Thu 07:51:02 PM 37.1525 -94.3986 260° West 427 491 34,000  Level Kansas City Center
Thu 07:52:04 PM 37.1331 -94.5469 261° West 431 496 34,000  Level Kansas City Center
Thu 07:53:06 PM 37.1117 -94.6936 260° West 430 495 34,000  Level Kansas City Center
Thu 07:54:08 PM 37.0917 -94.8417 260° West 431 496 34,000  Level Kansas City Center
Thu 07:55:10 PM 37.0656 -94.9886 257° West 433 498 34,000  Level Kansas City Center
Thu 07:56:12 PM 37.0044 -95.1228 240° Southwest 444 511 34,000  Level Kansas City Center
Thu 07:57:14 PM 36.9383 -95.2886 244° Southwest 445 512 34,000  Level Kansas City Center
Thu 07:58:16 PM 36.8844 -95.4283 244° Southwest 447 514 34,000  Level Kansas City Center
Thu 07:59:20 PM 36.8303 -95.5661 244° Southwest 446 513 34,000  Level Kansas City Center
Thu 08:00:22 PM 36.7767 -95.7056 244° Southwest 448 516 34,000  Level Kansas City Center
Thu 08:01:24 PM 36.7117 -95.8714 244° Southwest 448 516 34,000  Level Kansas City Center
Thu 08:02:26 PM 36.6567 -96.0111 244° Southwest 450 518 34,000  Level Kansas City Center
Thu 08:03:28 PM 36.6014 -96.1492 244° Southwest 448 516 34,000  Level Kansas City Center
Thu 08:04:30 PM 36.5467 -96.2878 244° Southwest 449 517 34,000  Level Kansas City Center
Thu 08:05:32 PM 36.4906 -96.4261 243° Southwest 448 516 34,000  Level Kansas City Center
Thu 08:06:34 PM 36.4356 -96.5667 244° Southwest 450 518 34,000  Level Kansas City Center
Thu 08:07:36 PM 36.3667 -96.7328 243° Southwest 452 520 34,000  Level Kansas City Center
Thu 08:08:38 PM 36.3131 -96.8694 244° Southwest 451 519 34,000  Level Kansas City Center
Thu 08:09:40 PM 36.2383 -96.9936 233° Southwest 463 533 34,000  Level Kansas City Center
Thu 08:10:41 PM 36.1167 -97.0361 196° South 467 537 34,000  Level Kansas City Center
Thu 08:11:43 PM 35.9878 -97.0644 190° South 468 539 34,000  Level Kansas City Center
Thu 08:12:45 PM 35.8606 -97.0947 191° South 467 537 34,000  Level Kansas City Center
Thu 08:13:47 PM 35.7075 -97.1311 191° South 465 535 34,000  Level Kansas City Center
Thu 08:14:49 PM 35.5794 -97.1606 191° South 465 535 34,000  Level Kansas City Center
Thu 08:15:29 PM 35.5039 -97.1764 190° South 469 540 34,000  Level Fort Worth Center
Thu 08:16:29 PM 35.3622 -97.2150 193° South 469 540 34,000  Level Fort Worth Center
Thu 08:18:30 PM 35.1017 -97.2767 191° South 476 548 34,000  Level Fort Worth Center
Thu 08:19:29 PM 34.9767 -97.3072 191° South 476 548 34,000 -756 Level Fort Worth Center
Thu 08:20:29 PM 34.8472 -97.3375 191° South 476 548 32,500 -1,750 Descending Fort Worth Center
Thu 08:21:29 PM 34.7219 -97.3681 191° South 471 542 30,500 -2,100 Descending Fort Worth Center
Thu 08:22:29 PM 34.5947 -97.3983 191° South 471 542 28,300 -2,050 Descending Fort Worth Center
Thu 08:23:29 PM 34.4717 -97.4286 191° South 466 536 26,400 -1,850 Descending Fort Worth Center
Thu 08:24:29 PM 34.3547 -97.4536 190° South 448 516 24,600 -1,233 Descending Fort Worth Center
Thu 08:26:29 PM 34.1628 -97.5339 199° South 389 448 22,700 -1,267 Descending Fort Worth Center
Thu 08:27:29 PM 34.0564 -97.5839 201° Southwest 395 455 20,800 -1,800 Descending Fort Worth Center
Thu 08:28:29 PM 33.9436 -97.6364 201° Southwest 395 455 19,100 -900 Descending Fort Worth Center
Thu 08:29:29 PM 33.8433 -97.6811 200° South 395 455 19,000 -1,000 Descending Fort Worth Center
Thu 08:30:29 PM 33.7369 -97.6733 177° South 377 434 17,100 -2,050 Descending Fort Worth Center
Thu 08:31:29 PM 33.6450 -97.6631 175° South 371 427 14,900 -2,150 Descending Fort Worth Center
Thu 08:32:29 PM 33.5303 -97.6553 177° South 379 436 12,800 -1,800 Descending Fort Worth Center
Thu 08:33:29 PM 33.4303 -97.6450 175° South 367 422 11,300 -1,350 Descending Fort Worth Center
Thu 08:34:29 PM 33.3508 -97.6100 160° South 307 353 10,100 -1,271 Descending Fort Worth Center
Thu 08:35:27 PM 33.3000 -97.5333 128° Southeast 291 335 8,800 -1,403 Descending Dallas / Fort Worth TRACON
Thu 08:36:33 PM 33.2333 -97.4667 140° Southeast 287 330 7,200 -1,421 Descending Dallas / Fort Worth TRACON
Thu 08:37:21 PM 33.2000 -97.4000 121° Southeast 276 318 6,100 -1,389 Descending Dallas / Fort Worth TRACON
Thu 08:38:21 PM 33.1500 -97.3333 132° Southeast 269 310 4,700 -1,238 Descending Dallas / Fort Worth TRACON
Thu 08:39:27 PM 33.0833 -97.2667 140° Southeast 252 290 3,500 -1,091 Descending Dallas / Fort Worth TRACON

Login

Don't have an account? Register now (free) for customized features, flight alerts, and more!